sensor_id;sensor_type;location;lat;lon;timestamp;P1;durP1;ratioP1;P2;durP2;ratioP2
47778;SDS011;33538;48.432;11.350;2023-11-22T00:02:16;14.02;;;6.72;;
47778;SDS011;33538;48.432;11.350;2023-11-22T00:04:43;11.25;;;5.88;;
47778;SDS011;33538;48.432;11.350;2023-11-22T00:07:10;12.80;;;6.38;;
47778;SDS011;33538;48.432;11.350;2023-11-22T00:09:37;13.10;;;6.93;;
47778;SDS011;33538;48.432;11.350;2023-11-22T00:12:04;13.82;;;5.97;;
47778;SDS011;33538;48.432;11.350;2023-11-22T00:14:32;12.50;;;6.20;;
47778;SDS011;33538;48.432;11.350;2023-11-22T00:17:00;11.38;;;6.15;;
47778;SDS011;33538;48.432;11.350;2023-11-22T00:19:27;14.38;;;7.32;;
47778;SDS011;33538;48.432;11.350;2023-11-22T00:21:54;13.07;;;6.47;;
47778;SDS011;33538;48.432;11.350;2023-11-22T00:24:21;14.30;;;5.97;;
47778;SDS011;33538;48.432;11.350;2023-11-22T00:26:47;15.52;;;6.88;;
47778;SDS011;33538;48.432;11.350;2023-11-22T00:29:14;13.23;;;6.25;;
47778;SDS011;33538;48.432;11.350;2023-11-22T00:31:41;14.27;;;6.63;;
47778;SDS011;33538;48.432;11.350;2023-11-22T00:34:09;12.02;;;6.10;;
47778;SDS011;33538;48.432;11.350;2023-11-22T00:36:36;14.35;;;6.30;;
47778;SDS011;33538;48.432;11.350;2023-11-22T00:39:03;12.88;;;6.05;;
47778;SDS011;33538;48.432;11.350;2023-11-22T00:41:30;12.70;;;6.15;;
47778;SDS011;33538;48.432;11.350;2023-11-22T00:43:57;14.52;;;6.75;;
47778;SDS011;33538;48.432;11.350;2023-11-22T00:46:24;11.27;;;6.25;;
47778;SDS011;33538;48.432;11.350;2023-11-22T00:48:50;12.52;;;5.55;;
47778;SDS011;33538;48.432;11.350;2023-11-22T00:51:19;13.98;;;6.05;;
47778;SDS011;33538;48.432;11.350;2023-11-22T00:53:46;13.50;;;6.63;;
47778;SDS011;33538;48.432;11.350;2023-11-22T00:56:13;6.20;;;3.47;;
47778;SDS011;33538;48.432;11.350;2023-11-22T00:58:40;4.50;;;2.08;;
47778;SDS011;33538;48.432;11.350;2023-11-22T01:01:07;3.80;;;2.58;;
47778;SDS011;33538;48.432;11.350;2023-11-22T01:03:34;2.33;;;1.65;;
47778;SDS011;33538;48.432;11.350;2023-11-22T01:06:01;1.95;;;1.38;;
47778;SDS011;33538;48.432;11.350;2023-11-22T01:08:29;2.03;;;1.40;;
47778;SDS011;33538;48.432;11.350;2023-11-22T01:10:56;2.03;;;1.70;;
47778;SDS011;33538;48.432;11.350;2023-11-22T01:13:23;2.28;;;1.63;;
47778;SDS011;33538;48.432;11.350;2023-11-22T01:15:49;3.13;;;1.65;;
47778;SDS011;33538;48.432;11.350;2023-11-22T01:18:16;2.03;;;1.75;;
47778;SDS011;33538;48.432;11.350;2023-11-22T01:20:43;2.25;;;1.48;;
47778;SDS011;33538;48.432;11.350;2023-11-22T01:23:10;2.45;;;1.60;;
47778;SDS011;33538;48.432;11.350;2023-11-22T01:25:38;2.58;;;1.80;;
47778;SDS011;33538;48.432;11.350;2023-11-22T01:28:05;4.03;;;2.00;;
47778;SDS011;33538;48.432;11.350;2023-11-22T01:30:32;2.85;;;1.98;;
47778;SDS011;33538;48.432;11.350;2023-11-22T01:32:58;3.13;;;1.92;;
47778;SDS011;33538;48.432;11.350;2023-11-22T01:35:25;2.90;;;1.98;;
47778;SDS011;33538;48.432;11.350;2023-11-22T01:37:52;2.97;;;1.88;;
47778;SDS011;33538;48.432;11.350;2023-11-22T01:40:19;3.42;;;2.13;;
47778;SDS011;33538;48.432;11.350;2023-11-22T01:42:47;4.45;;;2.30;;
47778;SDS011;33538;48.432;11.350;2023-11-22T01:45:14;5.63;;;2.03;;
47778;SDS011;33538;48.432;11.350;2023-11-22T01:47:41;3.92;;;2.30;;
47778;SDS011;33538;48.432;11.350;2023-11-22T01:50:08;4.72;;;2.35;;
47778;SDS011;33538;48.432;11.350;2023-11-22T01:52:35;3.88;;;2.40;;
47778;SDS011;33538;48.432;11.350;2023-11-22T01:55:03;3.72;;;2.08;;
47778;SDS011;33538;48.432;11.350;2023-11-22T01:57:31;4.75;;;2.22;;
47778;SDS011;33538;48.432;11.350;2023-11-22T02:00:02;6.90;;;2.83;;
47778;SDS011;33538;48.432;11.350;2023-11-22T02:02:29;5.28;;;3.10;;
47778;SDS011;33538;48.432;11.350;2023-11-22T02:04:57;3.72;;;2.35;;
47778;SDS011;33538;48.432;11.350;2023-11-22T02:07:23;4.40;;;2.70;;
47778;SDS011;33538;48.432;11.350;2023-11-22T02:09:53;5.18;;;2.78;;
47778;SDS011;33538;48.432;11.350;2023-11-22T02:12:19;7.75;;;3.15;;
47778;SDS011;33538;48.432;11.350;2023-11-22T02:14:47;5.10;;;2.53;;
47778;SDS011;33538;48.432;11.350;2023-11-22T02:17:15;6.00;;;2.97;;
47778;SDS011;33538;48.432;11.350;2023-11-22T02:19:42;4.68;;;2.90;;
47778;SDS011;33538;48.432;11.350;2023-11-22T02:22:09;4.80;;;3.10;;
47778;SDS011;33538;48.432;11.350;2023-11-22T02:24:37;6.53;;;2.63;;
47778;SDS011;33538;48.432;11.350;2023-11-22T02:27:04;5.47;;;2.60;;
47778;SDS011;33538;48.432;11.350;2023-11-22T02:29:31;4.60;;;2.03;;
47778;SDS011;33538;48.432;11.350;2023-11-22T02:31:58;4.53;;;2.45;;
47778;SDS011;33538;48.432;11.350;2023-11-22T02:34:25;4.97;;;2.47;;
47778;SDS011;33538;48.432;11.350;2023-11-22T02:36:51;5.90;;;3.08;;
47778;SDS011;33538;48.432;11.350;2023-11-22T02:39:29;4.72;;;2.75;;
47778;SDS011;33538;48.432;11.350;2023-11-22T02:42:04;5.57;;;3.00;;
47778;SDS011;33538;48.432;11.350;2023-11-22T02:44:31;4.60;;;2.50;;
47778;SDS011;33538;48.432;11.350;2023-11-22T02:46:58;5.07;;;2.72;;
47778;SDS011;33538;48.432;11.350;2023-11-22T02:49:25;8.57;;;3.50;;
47778;SDS011;33538;48.432;11.350;2023-11-22T02:51:52;7.03;;;2.97;;
47778;SDS011;33538;48.432;11.350;2023-11-22T02:54:19;5.90;;;2.80;;
47778;SDS011;33538;48.432;11.350;2023-11-22T02:56:45;5.72;;;2.83;;
47778;SDS011;33538;48.432;11.350;2023-11-22T02:59:13;4.72;;;2.53;;
47778;SDS011;33538;48.432;11.350;2023-11-22T03:01:40;4.72;;;2.63;;
47778;SDS011;33538;48.432;11.350;2023-11-22T03:04:07;6.85;;;2.80;;
47778;SDS011;33538;48.432;11.350;2023-11-22T03:06:34;5.22;;;2.85;;
47778;SDS011;33538;48.432;11.350;2023-11-22T03:09:01;5.28;;;2.85;;
47778;SDS011;33538;48.432;11.350;2023-11-22T03:11:28;4.30;;;2.28;;
47778;SDS011;33538;48.432;11.350;2023-11-22T03:13:55;4.93;;;2.40;;
47778;SDS011;33538;48.432;11.350;2023-11-22T03:16:23;4.60;;;2.30;;
47778;SDS011;33538;48.432;11.350;2023-11-22T03:18:50;6.15;;;2.70;;
47778;SDS011;33538;48.432;11.350;2023-11-22T03:21:16;4.15;;;2.40;;
47778;SDS011;33538;48.432;11.350;2023-11-22T03:23:43;3.97;;;1.92;;
47778;SDS011;33538;48.432;11.350;2023-11-22T03:26:10;4.22;;;2.40;;
47778;SDS011;33538;48.432;11.350;2023-11-22T03:28:37;4.38;;;2.03;;
47778;SDS011;33538;48.432;11.350;2023-11-22T03:31:04;5.38;;;2.65;;
47778;SDS011;33538;48.432;11.350;2023-11-22T03:33:32;3.80;;;2.33;;
47778;SDS011;33538;48.432;11.350;2023-11-22T03:35:59;3.28;;;1.88;;
47778;SDS011;33538;48.432;11.350;2023-11-22T03:38:25;2.90;;;1.77;;
47778;SDS011;33538;48.432;11.350;2023-11-22T03:40:52;4.38;;;2.38;;
47778;SDS011;33538;48.432;11.350;2023-11-22T03:43:19;5.78;;;2.65;;
47778;SDS011;33538;48.432;11.350;2023-11-22T03:45:46;4.88;;;2.15;;
47778;SDS011;33538;48.432;11.350;2023-11-22T03:48:13;3.22;;;2.10;;
47778;SDS011;33538;48.432;11.350;2023-11-22T03:50:41;3.75;;;2.45;;
47778;SDS011;33538;48.432;11.350;2023-11-22T03:53:08;4.25;;;2.50;;
47778;SDS011;33538;48.432;11.350;2023-11-22T03:55:35;4.97;;;2.60;;
47778;SDS011;33538;48.432;11.350;2023-11-22T03:58:02;4.68;;;1.75;;
47778;SDS011;33538;48.432;11.350;2023-11-22T04:00:28;6.05;;;2.85;;
47778;SDS011;33538;48.432;11.350;2023-11-22T04:02:55;4.18;;;2.20;;
47778;SDS011;33538;48.432;11.350;2023-11-22T04:05:22;3.15;;;1.77;;
47778;SDS011;33538;48.432;11.350;2023-11-22T04:07:50;5.60;;;2.58;;
47778;SDS011;33538;48.432;11.350;2023-11-22T04:10:17;3.75;;;2.10;;
47778;SDS011;33538;48.432;11.350;2023-11-22T04:12:44;6.15;;;2.40;;
47778;SDS011;33538;48.432;11.350;2023-11-22T04:15:11;6.68;;;2.22;;
47778;SDS011;33538;48.432;11.350;2023-11-22T04:17:38;3.30;;;1.88;;
47778;SDS011;33538;48.432;11.350;2023-11-22T04:20:06;4.13;;;1.98;;
47778;SDS011;33538;48.432;11.350;2023-11-22T04:22:34;3.65;;;2.60;;
47778;SDS011;33538;48.432;11.350;2023-11-22T04:25:02;6.47;;;2.60;;
47778;SDS011;33538;48.432;11.350;2023-11-22T04:27:29;3.35;;;1.92;;
47778;SDS011;33538;48.432;11.350;2023-11-22T04:29:56;4.35;;;2.30;;
47778;SDS011;33538;48.432;11.350;2023-11-22T04:32:23;4.47;;;2.08;;
47778;SDS011;33538;48.432;11.350;2023-11-22T04:34:50;3.97;;;2.30;;
47778;SDS011;33538;48.432;11.350;2023-11-22T04:37:17;2.95;;;1.70;;
47778;SDS011;33538;48.432;11.350;2023-11-22T04:39:44;4.15;;;2.25;;
47778;SDS011;33538;48.432;11.350;2023-11-22T04:42:12;5.40;;;2.13;;
47778;SDS011;33538;48.432;11.350;2023-11-22T04:44:38;3.22;;;2.00;;
47778;SDS011;33538;48.432;11.350;2023-11-22T04:47:05;3.08;;;1.75;;
47778;SDS011;33538;48.432;11.350;2023-11-22T04:49:32;3.55;;;1.73;;
47778;SDS011;33538;48.432;11.350;2023-11-22T04:51:59;4.00;;;1.90;;
47778;SDS011;33538;48.432;11.350;2023-11-22T04:54:26;3.38;;;2.05;;
47778;SDS011;33538;48.432;11.350;2023-11-22T04:56:53;4.18;;;2.03;;
47778;SDS011;33538;48.432;11.350;2023-11-22T04:59:21;3.95;;;2.13;;
47778;SDS011;33538;48.432;11.350;2023-11-22T05:01:47;3.75;;;1.80;;
47778;SDS011;33538;48.432;11.350;2023-11-22T05:04:14;3.22;;;1.80;;
47778;SDS011;33538;48.432;11.350;2023-11-22T05:06:41;2.65;;;1.60;;
47778;SDS011;33538;48.432;11.350;2023-11-22T05:09:08;2.35;;;1.80;;
47778;SDS011;33538;48.432;11.350;2023-11-22T05:11:35;3.28;;;2.35;;
47778;SDS011;33538;48.432;11.350;2023-11-22T05:14:02;2.80;;;1.70;;
47778;SDS011;33538;48.432;11.350;2023-11-22T05:16:30;3.40;;;1.63;;
47778;SDS011;33538;48.432;11.350;2023-11-22T05:18:57;3.38;;;2.20;;
47778;SDS011;33538;48.432;11.350;2023-11-22T05:21:24;3.33;;;1.88;;
47778;SDS011;33538;48.432;11.350;2023-11-22T05:23:50;3.75;;;2.20;;
47778;SDS011;33538;48.432;11.350;2023-11-22T05:26:17;3.17;;;2.15;;
47778;SDS011;33538;48.432;11.350;2023-11-22T05:28:44;2.90;;;1.52;;
47778;SDS011;33538;48.432;11.350;2023-11-22T05:31:11;3.80;;;2.20;;
47778;SDS011;33538;48.432;11.350;2023-11-22T05:33:39;2.97;;;1.83;;
47778;SDS011;33538;48.432;11.350;2023-11-22T05:36:06;3.50;;;2.03;;
47778;SDS011;33538;48.432;11.350;2023-11-22T05:38:33;4.60;;;2.00;;
47778;SDS011;33538;48.432;11.350;2023-11-22T05:41:00;4.30;;;1.80;;
47778;SDS011;33538;48.432;11.350;2023-11-22T05:43:27;3.47;;;1.90;;
47778;SDS011;33538;48.432;11.350;2023-11-22T05:45:54;3.88;;;2.00;;
47778;SDS011;33538;48.432;11.350;2023-11-22T05:48:21;3.90;;;2.03;;
47778;SDS011;33538;48.432;11.350;2023-11-22T05:50:49;4.30;;;2.30;;
47778;SDS011;33538;48.432;11.350;2023-11-22T05:53:16;4.50;;;2.55;;
47778;SDS011;33538;48.432;11.350;2023-11-22T05:55:43;2.92;;;2.13;;
47778;SDS011;33538;48.432;11.350;2023-11-22T05:58:10;4.85;;;2.88;;
47778;SDS011;33538;48.432;11.350;2023-11-22T06:00:37;5.40;;;3.28;;
47778;SDS011;33538;48.432;11.350;2023-11-22T06:03:04;5.47;;;2.95;;
47778;SDS011;33538;48.432;11.350;2023-11-22T06:05:30;5.47;;;3.13;;
47778;SDS011;33538;48.432;11.350;2023-11-22T06:07:59;5.15;;;3.17;;
47778;SDS011;33538;48.432;11.350;2023-11-22T06:10:26;6.30;;;3.55;;
47778;SDS011;33538;48.432;11.350;2023-11-22T06:12:52;8.55;;;3.47;;
47778;SDS011;33538;48.432;11.350;2023-11-22T06:15:19;6.63;;;3.08;;
47778;SDS011;33538;48.432;11.350;2023-11-22T06:17:46;8.60;;;3.78;;
47778;SDS011;33538;48.432;11.350;2023-11-22T06:20:13;8.88;;;3.92;;
47778;SDS011;33538;48.432;11.350;2023-11-22T06:22:40;7.97;;;3.95;;
47778;SDS011;33538;48.432;11.350;2023-11-22T06:25:09;9.18;;;3.97;;
47778;SDS011;33538;48.432;11.350;2023-11-22T06:27:36;6.18;;;3.67;;
47778;SDS011;33538;48.432;11.350;2023-11-22T06:30:03;6.13;;;3.55;;
47778;SDS011;33538;48.432;11.350;2023-11-22T06:32:31;6.93;;;3.17;;
47778;SDS011;33538;48.432;11.350;2023-11-22T06:34:58;7.82;;;3.70;;
47778;SDS011;33538;48.432;11.350;2023-11-22T06:37:24;5.55;;;3.38;;
47778;SDS011;33538;48.432;11.350;2023-11-22T06:39:51;5.72;;;3.10;;
47778;SDS011;33538;48.432;11.350;2023-11-22T06:42:20;5.80;;;3.30;;
47778;SDS011;33538;48.432;11.350;2023-11-22T06:44:46;6.78;;;3.10;;
47778;SDS011;33538;48.432;11.350;2023-11-22T06:47:13;6.35;;;3.67;;
47778;SDS011;33538;48.432;11.350;2023-11-22T06:49:40;5.32;;;3.15;;
47778;SDS011;33538;48.432;11.350;2023-11-22T06:52:07;9.25;;;3.72;;
47778;SDS011;33538;48.432;11.350;2023-11-22T06:54:34;6.03;;;3.35;;
47778;SDS011;33538;48.432;11.350;2023-11-22T06:57:01;6.00;;;3.03;;
47778;SDS011;33538;48.432;11.350;2023-11-22T06:59:29;5.40;;;2.92;;
47778;SDS011;33538;48.432;11.350;2023-11-22T07:01:56;5.95;;;3.13;;
47778;SDS011;33538;48.432;11.350;2023-11-22T07:04:23;6.90;;;3.13;;
47778;SDS011;33538;48.432;11.350;2023-11-22T07:06:50;6.28;;;2.90;;
47778;SDS011;33538;48.432;11.350;2023-11-22T07:09:16;3.75;;;2.38;;
47778;SDS011;33538;48.432;11.350;2023-11-22T07:11:43;3.30;;;2.15;;
47778;SDS011;33538;48.432;11.350;2023-11-22T07:14:10;3.70;;;2.42;;
47778;SDS011;33538;48.432;11.350;2023-11-22T07:16:38;5.72;;;2.65;;
47778;SDS011;33538;48.432;11.350;2023-11-22T07:19:05;4.20;;;2.40;;
47778;SDS011;33538;48.432;11.350;2023-11-22T07:21:32;5.00;;;2.88;;
47778;SDS011;33538;48.432;11.350;2023-11-22T07:23:59;5.30;;;2.67;;
47778;SDS011;33538;48.432;11.350;2023-11-22T07:26:26;5.53;;;2.25;;
47778;SDS011;33538;48.432;11.350;2023-11-22T07:28:53;4.07;;;2.50;;
47778;SDS011;33538;48.432;11.350;2023-11-22T07:31:19;4.60;;;2.40;;
47778;SDS011;33538;48.432;11.350;2023-11-22T07:33:48;5.22;;;2.70;;
47778;SDS011;33538;48.432;11.350;2023-11-22T07:36:14;4.28;;;2.05;;
47778;SDS011;33538;48.432;11.350;2023-11-22T07:38:41;4.78;;;1.98;;
47778;SDS011;33538;48.432;11.350;2023-11-22T07:41:08;3.28;;;1.90;;
47778;SDS011;33538;48.432;11.350;2023-11-22T07:43:35;4.70;;;1.90;;
47778;SDS011;33538;48.432;11.350;2023-11-22T07:46:04;4.43;;;1.92;;
47778;SDS011;33538;48.432;11.350;2023-11-22T07:48:31;2.42;;;1.80;;
47778;SDS011;33538;48.432;11.350;2023-11-22T07:50:59;3.40;;;1.90;;
47778;SDS011;33538;48.432;11.350;2023-11-22T07:53:26;4.13;;;2.10;;
47778;SDS011;33538;48.432;11.350;2023-11-22T07:55:53;5.60;;;2.03;;
47778;SDS011;33538;48.432;11.350;2023-11-22T07:58:20;4.68;;;2.38;;
47778;SDS011;33538;48.432;11.350;2023-11-22T08:00:47;4.45;;;2.53;;
47778;SDS011;33538;48.432;11.350;2023-11-22T08:03:14;4.20;;;2.03;;
47778;SDS011;33538;48.432;11.350;2023-11-22T08:05:41;8.15;;;3.47;;
47778;SDS011;33538;48.432;11.350;2023-11-22T08:08:09;38.42;;;9.18;;
47778;SDS011;33538;48.432;11.350;2023-11-22T08:10:36;33.38;;;11.18;;
47778;SDS011;33538;48.432;11.350;2023-11-22T08:13:03;7.20;;;3.78;;
47778;SDS011;33538;48.432;11.350;2023-11-22T08:15:30;6.43;;;2.95;;
47778;SDS011;33538;48.432;11.350;2023-11-22T08:17:57;5.00;;;3.53;;
47778;SDS011;33538;48.432;11.350;2023-11-22T08:20:24;6.10;;;3.33;;
47778;SDS011;33538;48.432;11.350;2023-11-22T08:22:51;7.50;;;2.75;;
47778;SDS011;33538;48.432;11.350;2023-11-22T08:25:19;5.43;;;2.63;;
47778;SDS011;33538;48.432;11.350;2023-11-22T08:27:46;4.93;;;2.67;;
47778;SDS011;33538;48.432;11.350;2023-11-22T08:30:13;3.58;;;2.30;;
47778;SDS011;33538;48.432;11.350;2023-11-22T08:35:08;5.57;;;2.90;;
47778;SDS011;33538;48.432;11.350;2023-11-22T08:37:35;5.25;;;2.53;;
47778;SDS011;33538;48.432;11.350;2023-11-22T08:40:06;5.10;;;2.78;;
47778;SDS011;33538;48.432;11.350;2023-11-22T08:42:35;6.95;;;2.88;;
47778;SDS011;33538;48.432;11.350;2023-11-22T08:45:02;4.93;;;2.80;;
47778;SDS011;33538;48.432;11.350;2023-11-22T08:47:29;5.00;;;2.78;;
47778;SDS011;33538;48.432;11.350;2023-11-22T08:49:56;6.20;;;2.40;;
47778;SDS011;33538;48.432;11.350;2023-11-22T08:52:23;7.43;;;2.35;;
47778;SDS011;33538;48.432;11.350;2023-11-22T08:54:50;4.35;;;2.47;;
47778;SDS011;33538;48.432;11.350;2023-11-22T08:57:17;4.95;;;2.65;;
47778;SDS011;33538;48.432;11.350;2023-11-22T08:59:45;5.72;;;2.85;;
47778;SDS011;33538;48.432;11.350;2023-11-22T09:02:12;5.50;;;2.35;;
47778;SDS011;33538;48.432;11.350;2023-11-22T09:04:39;5.60;;;2.60;;
47778;SDS011;33538;48.432;11.350;2023-11-22T09:07:05;4.22;;;2.33;;
47778;SDS011;33538;48.432;11.350;2023-11-22T09:09:32;4.85;;;2.45;;
47778;SDS011;33538;48.432;11.350;2023-11-22T09:11:59;4.28;;;2.53;;
47778;SDS011;33538;48.432;11.350;2023-11-22T09:14:26;5.72;;;2.83;;
47778;SDS011;33538;48.432;11.350;2023-11-22T09:16:54;4.22;;;2.63;;
47778;SDS011;33538;48.432;11.350;2023-11-22T09:19:21;4.78;;;2.55;;
47778;SDS011;33538;48.432;11.350;2023-11-22T09:21:48;4.60;;;2.70;;
47778;SDS011;33538;48.432;11.350;2023-11-22T09:24:15;4.10;;;2.65;;
47778;SDS011;33538;48.432;11.350;2023-11-22T09:26:42;5.63;;;2.88;;
47778;SDS011;33538;48.432;11.350;2023-11-22T09:29:09;6.60;;;2.70;;
47778;SDS011;33538;48.432;11.350;2023-11-22T09:31:36;4.75;;;2.40;;
47778;SDS011;33538;48.432;11.350;2023-11-22T09:34:04;6.22;;;2.60;;
47778;SDS011;33538;48.432;11.350;2023-11-22T09:36:31;4.13;;;2.70;;
47778;SDS011;33538;48.432;11.350;2023-11-22T09:38:58;5.28;;;2.90;;
47778;SDS011;33538;48.432;11.350;2023-11-22T09:41:25;3.80;;;2.38;;
47778;SDS011;33538;48.432;11.350;2023-11-22T09:43:52;5.43;;;2.80;;
47778;SDS011;33538;48.432;11.350;2023-11-22T09:46:18;6.35;;;2.75;;
47778;SDS011;33538;48.432;11.350;2023-11-22T09:48:48;5.28;;;3.03;;
47778;SDS011;33538;48.432;11.350;2023-11-22T09:51:18;4.30;;;2.60;;
47778;SDS011;33538;48.432;11.350;2023-11-22T09:53:51;5.25;;;2.88;;
47778;SDS011;33538;48.432;11.350;2023-11-22T09:56:20;6.78;;;3.50;;
47778;SDS011;33538;48.432;11.350;2023-11-22T09:58:49;3.47;;;2.50;;
47778;SDS011;33538;48.432;11.350;2023-11-22T10:01:19;4.63;;;2.50;;
47778;SDS011;33538;48.432;11.350;2023-11-22T10:03:47;8.27;;;2.90;;
47778;SDS011;33538;48.432;11.350;2023-11-22T10:06:14;4.85;;;2.65;;
47778;SDS011;33538;48.432;11.350;2023-11-22T10:08:43;4.72;;;2.30;;
47778;SDS011;33538;48.432;11.350;2023-11-22T10:11:10;4.75;;;2.80;;
47778;SDS011;33538;48.432;11.350;2023-11-22T10:13:38;5.32;;;2.78;;
47778;SDS011;33538;48.432;11.350;2023-11-22T10:16:09;5.70;;;3.22;;
47778;SDS011;33538;48.432;11.350;2023-11-22T10:18:39;6.40;;;3.10;;
47778;SDS011;33538;48.432;11.350;2023-11-22T10:21:17;6.10;;;3.22;;
47778;SDS011;33538;48.432;11.350;2023-11-22T10:23:45;5.68;;;2.88;;
47778;SDS011;33538;48.432;11.350;2023-11-22T10:26:12;6.25;;;3.20;;
47778;SDS011;33538;48.432;11.350;2023-11-22T10:28:39;6.13;;;3.30;;
47778;SDS011;33538;48.432;11.350;2023-11-22T10:31:06;5.97;;;3.40;;
47778;SDS011;33538;48.432;11.350;2023-11-22T10:33:33;5.70;;;3.38;;
47778;SDS011;33538;48.432;11.350;2023-11-22T10:36:04;6.07;;;3.17;;
47778;SDS011;33538;48.432;11.350;2023-11-22T10:38:34;5.22;;;2.50;;
47778;SDS011;33538;48.432;11.350;2023-11-22T10:41:02;7.50;;;3.00;;
47778;SDS011;33538;48.432;11.350;2023-11-22T10:43:30;4.90;;;3.35;;
47778;SDS011;33538;48.432;11.350;2023-11-22T10:45:57;5.40;;;3.30;;
47778;SDS011;33538;48.432;11.350;2023-11-22T10:48:24;6.75;;;3.30;;
47778;SDS011;33538;48.432;11.350;2023-11-22T10:50:52;4.68;;;3.13;;
47778;SDS011;33538;48.432;11.350;2023-11-22T10:53:20;6.80;;;3.40;;
47778;SDS011;33538;48.432;11.350;2023-11-22T10:55:49;6.40;;;3.00;;
47778;SDS011;33538;48.432;11.350;2023-11-22T10:58:22;5.72;;;3.40;;
47778;SDS011;33538;48.432;11.350;2023-11-22T11:00:49;4.30;;;3.33;;
47778;SDS011;33538;48.432;11.350;2023-11-22T11:03:17;4.25;;;2.72;;
47778;SDS011;33538;48.432;11.350;2023-11-22T11:05:46;5.43;;;2.75;;
47778;SDS011;33538;48.432;11.350;2023-11-22T11:08:17;4.82;;;2.60;;
47778;SDS011;33538;48.432;11.350;2023-11-22T11:10:44;5.80;;;3.22;;
47778;SDS011;33538;48.432;11.350;2023-11-22T11:13:13;4.97;;;2.90;;
47778;SDS011;33538;48.432;11.350;2023-11-22T11:15:40;6.78;;;3.25;;
47778;SDS011;33538;48.432;11.350;2023-11-22T11:18:09;5.70;;;3.03;;
47778;SDS011;33538;48.432;11.350;2023-11-22T11:20:44;4.90;;;2.80;;
47778;SDS011;33538;48.432;11.350;2023-11-22T11:23:12;5.53;;;3.10;;
47778;SDS011;33538;48.432;11.350;2023-11-22T11:25:39;6.95;;;3.65;;
47778;SDS011;33538;48.432;11.350;2023-11-22T11:28:09;5.28;;;2.78;;
47778;SDS011;33538;48.432;11.350;2023-11-22T11:30:44;5.22;;;3.05;;
47778;SDS011;33538;48.432;11.350;2023-11-22T11:33:12;4.32;;;2.70;;
47778;SDS011;33538;48.432;11.350;2023-11-22T11:35:40;4.78;;;3.15;;
47778;SDS011;33538;48.432;11.350;2023-11-22T11:38:09;5.55;;;2.78;;
47778;SDS011;33538;48.432;11.350;2023-11-22T11:40:38;8.85;;;3.47;;
47778;SDS011;33538;48.432;11.350;2023-11-22T11:43:06;5.60;;;2.85;;
47778;SDS011;33538;48.432;11.350;2023-11-22T11:45:35;5.03;;;2.88;;
47778;SDS011;33538;48.432;11.350;2023-11-22T11:48:04;5.18;;;3.05;;
47778;SDS011;33538;48.432;11.350;2023-11-22T11:50:32;6.13;;;3.20;;
47778;SDS011;33538;48.432;11.350;2023-11-22T11:52:58;4.32;;;2.53;;
47778;SDS011;33538;48.432;11.350;2023-11-22T11:55:25;5.32;;;3.00;;
47778;SDS011;33538;48.432;11.350;2023-11-22T11:57:53;4.90;;;3.08;;
47778;SDS011;33538;48.432;11.350;2023-11-22T12:00:20;5.55;;;3.05;;
47778;SDS011;33538;48.432;11.350;2023-11-22T12:02:48;5.55;;;2.67;;
47778;SDS011;33538;48.432;11.350;2023-11-22T12:05:16;6.47;;;3.22;;
47778;SDS011;33538;48.432;11.350;2023-11-22T12:07:45;4.32;;;2.78;;
47778;SDS011;33538;48.432;11.350;2023-11-22T12:10:12;6.60;;;3.28;;
47778;SDS011;33538;48.432;11.350;2023-11-22T12:12:43;5.82;;;2.72;;
47778;SDS011;33538;48.432;11.350;2023-11-22T12:15:10;4.00;;;2.58;;
47778;SDS011;33538;48.432;11.350;2023-11-22T12:17:37;4.72;;;2.50;;
47778;SDS011;33538;48.432;11.350;2023-11-22T12:20:11;5.07;;;3.38;;
47778;SDS011;33538;48.432;11.350;2023-11-22T12:22:40;5.28;;;2.67;;
47778;SDS011;33538;48.432;11.350;2023-11-22T12:25:08;5.50;;;2.90;;
47778;SDS011;33538;48.432;11.350;2023-11-22T12:27:38;6.43;;;2.85;;
47778;SDS011;33538;48.432;11.350;2023-11-22T12:30:06;5.43;;;3.20;;
47778;SDS011;33538;48.432;11.350;2023-11-22T12:32:34;7.32;;;3.35;;
47778;SDS011;33538;48.432;11.350;2023-11-22T12:35:04;6.60;;;3.30;;
47778;SDS011;33538;48.432;11.350;2023-11-22T12:37:32;8.20;;;3.08;;
47778;SDS011;33538;48.432;11.350;2023-11-22T12:40:04;7.47;;;3.25;;
47778;SDS011;33538;48.432;11.350;2023-11-22T12:42:45;5.63;;;2.60;;
47778;SDS011;33538;48.432;11.350;2023-11-22T12:45:17;4.90;;;2.90;;
47778;SDS011;33538;48.432;11.350;2023-11-22T12:47:45;5.95;;;3.42;;
47778;SDS011;33538;48.432;11.350;2023-11-22T12:52:57;5.55;;;3.00;;
47778;SDS011;33538;48.432;11.350;2023-11-22T12:55:25;5.53;;;3.17;;
47778;SDS011;33538;48.432;11.350;2023-11-22T12:57:58;5.60;;;3.30;;
47778;SDS011;33538;48.432;11.350;2023-11-22T13:00:25;6.10;;;3.03;;
47778;SDS011;33538;48.432;11.350;2023-11-22T13:02:52;5.10;;;2.90;;
47778;SDS011;33538;48.432;11.350;2023-11-22T13:05:29;8.05;;;3.47;;
47778;SDS011;33538;48.432;11.350;2023-11-22T13:07:56;4.90;;;3.28;;
47778;SDS011;33538;48.432;11.350;2023-11-22T13:10:26;7.03;;;3.67;;
47778;SDS011;33538;48.432;11.350;2023-11-22T13:12:53;5.05;;;2.67;;
47778;SDS011;33538;48.432;11.350;2023-11-22T13:15:20;5.93;;;3.20;;
47778;SDS011;33538;48.432;11.350;2023-11-22T13:17:47;6.65;;;3.53;;
47778;SDS011;33538;48.432;11.350;2023-11-22T13:20:14;6.72;;;3.03;;
47778;SDS011;33538;48.432;11.350;2023-11-22T13:22:41;5.75;;;3.20;;
47778;SDS011;33538;48.432;11.350;2023-11-22T13:25:08;5.05;;;2.55;;
47778;SDS011;33538;48.432;11.350;2023-11-22T13:27:36;5.75;;;3.08;;
47778;SDS011;33538;48.432;11.350;2023-11-22T13:30:03;4.38;;;2.72;;
47778;SDS011;33538;48.432;11.350;2023-11-22T13:32:31;8.35;;;3.40;;
47778;SDS011;33538;48.432;11.350;2023-11-22T13:34:58;3.75;;;2.25;;
47778;SDS011;33538;48.432;11.350;2023-11-22T13:37:25;5.05;;;2.85;;
47778;SDS011;33538;48.432;11.350;2023-11-22T13:39:52;8.27;;;3.58;;
47778;SDS011;33538;48.432;11.350;2023-11-22T13:42:19;5.80;;;3.50;;
47778;SDS011;33538;48.432;11.350;2023-11-22T13:44:47;6.43;;;3.55;;
47778;SDS011;33538;48.432;11.350;2023-11-22T13:47:14;8.38;;;3.30;;
47778;SDS011;33538;48.432;11.350;2023-11-22T13:49:41;7.57;;;3.90;;
47778;SDS011;33538;48.432;11.350;2023-11-22T13:52:08;8.65;;;4.03;;
47778;SDS011;33538;48.432;11.350;2023-11-22T13:54:35;6.90;;;3.25;;
47778;SDS011;33538;48.432;11.350;2023-11-22T13:57:01;8.57;;;3.75;;
47778;SDS011;33538;48.432;11.350;2023-11-22T13:59:28;6.78;;;3.75;;
47778;SDS011;33538;48.432;11.350;2023-11-22T14:01:57;6.18;;;3.60;;
47778;SDS011;33538;48.432;11.350;2023-11-22T14:04:23;7.13;;;3.83;;
47778;SDS011;33538;48.432;11.350;2023-11-22T14:06:50;7.88;;;3.45;;
47778;SDS011;33538;48.432;11.350;2023-11-22T14:09:17;7.13;;;3.05;;
47778;SDS011;33538;48.432;11.350;2023-11-22T14:11:44;8.32;;;3.25;;
47778;SDS011;33538;48.432;11.350;2023-11-22T14:14:11;4.35;;;2.90;;
47778;SDS011;33538;48.432;11.350;2023-11-22T14:16:40;7.00;;;3.40;;
47778;SDS011;33538;48.432;11.350;2023-11-22T14:19:08;6.78;;;3.55;;
47778;SDS011;33538;48.432;11.350;2023-11-22T14:21:35;8.27;;;3.53;;
47778;SDS011;33538;48.432;11.350;2023-11-22T14:24:01;6.20;;;3.45;;
47778;SDS011;33538;48.432;11.350;2023-11-22T14:26:28;9.15;;;4.75;;
47778;SDS011;33538;48.432;11.350;2023-11-22T14:28:55;7.72;;;4.15;;
47778;SDS011;33538;48.432;11.350;2023-11-22T14:31:22;6.30;;;3.40;;
47778;SDS011;33538;48.432;11.350;2023-11-22T14:33:49;6.00;;;3.38;;
47778;SDS011;33538;48.432;11.350;2023-11-22T14:36:17;6.22;;;3.45;;
47778;SDS011;33538;48.432;11.350;2023-11-22T14:38:44;8.85;;;4.47;;
47778;SDS011;33538;48.432;11.350;2023-11-22T14:41:11;11.02;;;4.60;;